Time;durP1;ratioP1;P1;durP2;ratioP2;P2;SDS_P1;SDS_P2;PMS_P1;PMS_P2;Temp;Humidity;BMP_temperature;BMP_pressure;BME280_temperature;BME280_humidity;BME280_pressure;Samples;Min_cycle;Max_cycle;Signal;HPM_P1;HPM_P2
2022/04/23 00:01:01;;;;;;;45.93;31.50;;;15.00;83.80;;;;;;5002196;28;20681;-74
2022/04/23 00:03:29;;;;;;;45.73;32.30;;;15.00;83.80;;;;;;4999554;28;20196;-75
2022/04/23 00:05:58;;;;;;;43.23;28.83;;;15.00;83.70;;;;;;5002120;28;20744;-75
2022/04/23 00:08:26;;;;;;;33.93;22.60;;;15.00;83.70;;;;;;5003292;28;20203;-75
2022/04/23 00:10:58;;;;;;;33.20;22.77;;;15.00;83.70;;;;;;5001606;28;20717;-75
2022/04/23 00:13:27;;;;;;;29.73;19.30;;;14.90;83.60;;;;;;5002334;28;20198;-75
2022/04/23 00:15:55;;;;;;;28.43;17.93;;;14.90;83.70;;;;;;5000746;28;20745;-75
2022/04/23 00:18:25;;;;;;;28.17;16.47;;;14.90;83.60;;;;;;4999602;28;20223;-76
2022/04/23 00:20:55;;;;;;;22.73;14.47;;;14.90;83.70;;;;;;5001815;28;20699;-75
2022/04/23 00:23:24;;;;;;;25.23;12.77;;;14.90;84.70;;;;;;4999759;28;20194;-75
2022/04/23 00:25:54;;;;;;;21.20;13.25;;;14.80;84.10;;;;;;5001451;28;20436;-76
2022/04/23 00:28:23;;;;;;;17.33;11.37;;;14.80;84.30;;;;;;5000210;28;20196;-75
2022/04/23 00:30:52;;;;;;;16.03;10.87;;;14.80;84.20;;;;;;5000691;28;20235;-75
2022/04/23 00:33:21;;;;;;;19.03;9.80;;;14.80;84.10;;;;;;5001723;28;20204;-76
2022/04/23 00:35:51;;;;;;;16.77;10.80;;;14.70;84.10;;;;;;4999600;28;20200;-75
2022/04/23 00:38:19;;;;;;;17.63;10.53;;;14.70;84.10;;;;;;5001547;28;20219;-74
2022/04/23 00:40:48;;;;;;;17.03;10.43;;;14.70;84.10;;;;;;5001362;28;20232;-76
2022/04/23 00:43:27;;;;;;;16.80;10.73;;;14.60;84.30;;;;;;5000758;28;20717;-75
2022/04/23 00:45:56;;;;;;;19.10;11.23;;;14.60;84.30;;;;;;4998411;28;20754;-75
2022/04/23 00:48:26;;;;;;;16.73;11.53;;;14.60;84.30;;;;;;4999811;28;20192;-75
2022/04/23 00:50:58;;;;;;;18.57;10.87;;;14.50;84.30;;;;;;5000435;28;20917;-74
2022/04/23 00:53:27;;;;;;;20.67;11.83;;;14.50;84.40;;;;;;5001603;28;20196;-74
2022/04/23 00:55:55;;;;;;;18.67;11.77;;;14.40;84.40;;;;;;5001044;28;20864;-75
2022/04/23 00:58:24;;;;;;;19.27;11.43;;;14.40;84.50;;;;;;5002379;28;20212;-75
2022/04/23 01:00:52;;;;;;;19.57;12.37;;;14.40;84.70;;;;;;4997979;28;20675;-75
2022/04/23 01:03:22;;;;;;;20.57;11.20;;;14.30;84.40;;;;;;5001312;28;20206;-75
2022/04/23 01:05:51;;;;;;;18.80;12.13;;;14.30;84.50;;;;;;4999405;28;20200;-75
2022/04/23 01:08:21;;;;;;;21.50;11.53;;;14.30;84.50;;;;;;5005182;28;20196;-74
2022/04/23 01:10:50;;;;;;;22.60;12.40;;;14.30;84.40;;;;;;5005614;28;20646;-75
2022/04/23 01:13:18;;;;;;;22.47;11.63;;;14.30;84.50;;;;;;5004864;28;20204;-73
2022/04/23 01:15:58;;;;;;;22.40;11.93;;;14.30;84.70;;;;;;5003632;28;20203;-74
2022/04/23 01:18:27;;;;;;;17.97;11.73;;;14.30;85.10;;;;;;5005963;28;20294;-76
2022/04/23 01:20:57;;;;;;;18.80;11.87;;;14.30;85.10;;;;;;5004173;28;20234;-76
2022/04/23 01:23:26;;;;;;;17.50;11.60;;;14.20;85.00;;;;;;5004069;28;20195;-75
2022/04/23 01:25:54;;;;;;;18.77;12.47;;;14.20;85.00;;;;;;5004912;28;20677;-75
2022/04/23 01:28:23;;;;;;;21.57;11.90;;;14.20;85.10;;;;;;5005090;28;20208;-74
2022/04/23 01:30:53;;;;;;;18.03;12.13;;;14.20;85.00;;;;;;5003974;28;20192;-74
2022/04/23 01:33:21;;;;;;;19.43;12.43;;;14.10;84.90;;;;;;5003647;28;20558;-75
2022/04/23 01:35:50;;;;;;;20.00;12.50;;;14.10;84.90;;;;;;5004942;28;20212;-75
2022/04/23 01:38:20;;;;;;;21.77;13.33;;;14.00;84.80;;;;;;5005574;28;20245;-75
2022/04/23 01:40:48;;;;;;;22.87;13.40;;;14.00;85.00;;;;;;5005367;28;20231;-75
2022/04/23 01:43:17;;;;;;;23.60;12.10;;;14.00;84.80;;;;;;5004261;28;20565;-75
2022/04/23 01:45:45;;;;;;;20.37;12.47;;;14.00;84.80;;;;;;5004016;28;20196;-75
2022/04/23 01:48:13;;;;;;;18.77;12.23;;;14.00;84.80;;;;;;5002656;28;20358;-76
2022/04/23 01:50:42;;;;;;;22.77;15.02;;;13.90;84.90;;;;;;5002021;28;20916;-75
2022/04/23 01:53:10;;;;;;;21.07;14.10;;;13.90;85.20;;;;;;5003972;28;20204;-76
2022/04/23 01:55:40;;;;;;;22.17;13.87;;;13.90;85.20;;;;;;5004594;28;20188;-74
2022/04/23 01:58:08;;;;;;;23.73;14.10;;;13.90;85.30;;;;;;5003988;28;20976;-73
2022/04/23 02:00:37;;;;;;;24.47;14.17;;;13.90;85.30;;;;;;5001230;28;20200;-75
2022/04/23 02:03:06;;;;;;;19.70;13.10;;;13.90;85.60;;;;;;5004076;28;20204;-75
2022/04/23 02:05:35;;;;;;;22.70;13.37;;;13.80;85.40;;;;;;5004816;28;20309;-74
2022/04/23 02:08:03;;;;;;;22.50;13.80;;;13.80;85.40;;;;;;5003786;28;20204;-74
2022/04/23 02:10:31;;;;;;;19.73;13.43;;;13.80;85.30;;;;;;5005957;28;20196;-75
2022/04/23 02:13:01;;;;;;;23.67;13.83;;;13.80;85.20;;;;;;5005655;28;20195;-75
2022/04/23 02:15:30;;;;;;;22.23;13.87;;;13.80;85.40;;;;;;5004585;28;20193;-75
2022/04/23 02:17:58;;;;;;;20.73;13.03;;;13.80;85.30;;;;;;5004185;28;20460;-74
2022/04/23 02:20:28;;;;;;;23.77;13.93;;;13.80;85.40;;;;;;5005199;28;20192;-75
2022/04/23 02:22:56;;;;;;;20.70;13.17;;;13.70;85.50;;;;;;5002740;28;20448;-75
2022/04/23 02:25:25;;;;;;;25.87;13.60;;;13.70;85.30;;;;;;5003361;28;20202;-75
2022/04/23 02:27:53;;;;;;;22.33;13.60;;;13.70;85.20;;;;;;5002197;28;20206;-76
2022/04/23 02:30:23;;;;;;;22.03;13.93;;;13.70;85.20;;;;;;5003398;28;20218;-75
2022/04/23 02:32:51;;;;;;;20.97;13.23;;;13.70;85.10;;;;;;5002911;28;20203;-75
2022/04/23 02:35:20;;;;;;;19.73;12.63;;;13.70;85.10;;;;;;5003443;28;20196;-75
2022/04/23 02:37:53;;;;;;;23.70;13.60;;;13.60;85.00;;;;;;5003547;28;20234;-75
2022/04/23 02:40:21;;;;;;;22.67;14.60;;;13.60;85.00;;;;;;5003765;28;20380;-75
2022/04/23 02:42:51;;;;;;;25.00;14.43;;;13.60;85.00;;;;;;5003710;28;20211;-75
2022/04/23 02:45:20;;;;;;;22.37;13.80;;;13.60;84.80;;;;;;5003986;28;20655;-75
2022/04/23 02:47:52;;;;;;;22.47;13.53;;;13.50;84.80;;;;;;5002626;28;20203;-75
2022/04/23 02:50:27;;;;;;;21.90;13.60;;;13.60;84.80;;;;;;5003540;28;20200;-76
2022/04/23 02:52:57;;;;;;;23.90;14.17;;;13.50;84.70;;;;;;5003430;28;20207;-75
2022/04/23 02:55:27;;;;;;;23.53;14.27;;;13.50;84.70;;;;;;5002619;28;20752;-75
2022/04/23 02:57:57;;;;;;;20.13;14.03;;;13.50;84.70;;;;;;5004471;28;20231;-74
2022/04/23 03:00:25;;;;;;;23.70;14.13;;;13.50;84.70;;;;;;5002973;28;20208;-76
2022/04/23 03:02:55;;;;;;;23.53;13.40;;;13.50;84.70;;;;;;5004054;28;20204;-75
2022/04/23 03:05:26;;;;;;;22.47;14.27;;;13.50;84.60;;;;;;5003105;28;20223;-76
2022/04/23 03:07:54;;;;;;;21.00;12.90;;;13.50;84.50;;;;;;5001033;28;20200;-76
2022/04/23 03:10:23;;;;;;;24.67;14.40;;;13.50;84.40;;;;;;5002894;28;20219;-74
2022/04/23 03:12:51;;;;;;;19.10;12.57;;;13.50;84.40;;;;;;5004084;28;20201;-74
2022/04/23 03:15:19;;;;;;;22.50;13.17;;;13.50;84.40;;;;;;5002880;28;20196;-74
2022/04/23 03:17:48;;;;;;;23.33;14.30;;;13.50;84.40;;;;;;5003569;28;20196;-76
2022/04/23 03:20:18;;;;;;;25.40;13.20;;;13.40;84.30;;;;;;5002376;28;20200;-74
2022/04/23 03:22:47;;;;;;;22.63;13.03;;;13.40;84.30;;;;;;5001762;28;20223;-75
2022/04/23 03:25:15;;;;;;;23.87;14.10;;;13.50;84.40;;;;;;5001085;28;20713;-74
2022/04/23 03:27:43;;;;;;;21.00;14.23;;;13.40;84.30;;;;;;5000603;28;20204;-75
2022/04/23 03:30:12;;;;;;;22.77;13.67;;;13.40;84.40;;;;;;5003286;28;20274;-75
2022/04/23 03:32:41;;;;;;;23.17;14.93;;;13.40;84.60;;;;;;5001952;28;20903;-75
2022/04/23 03:35:10;;;;;;;28.60;14.73;;;13.30;84.40;;;;;;5003022;28;20197;-74
2022/04/23 03:37:41;;;;;;;22.33;13.90;;;13.30;84.40;;;;;;5003018;28;20684;-74
2022/04/23 03:40:11;;;;;;;24.40;13.67;;;13.30;84.40;;;;;;5002364;28;20231;-74
2022/04/23 03:42:44;;;;;;;22.37;14.33;;;13.30;84.40;;;;;;5002200;28;20291;-76
2022/04/23 03:45:13;;;;;;;23.97;13.53;;;13.30;84.60;;;;;;5002616;28;20207;-75
2022/04/23 03:47:45;;;;;;;21.00;13.70;;;13.30;84.60;;;;;;5002640;28;20195;-75
2022/04/23 03:50:14;;;;;;;24.30;13.90;;;13.30;84.60;;;;;;5004262;28;20546;-76
2022/04/23 03:52:45;;;;;;;22.63;13.70;;;13.40;84.70;;;;;;5003748;28;20196;-75
2022/04/23 03:55:14;;;;;;;26.40;14.27;;;13.40;84.60;;;;;;5001349;28;20900;-75
2022/04/23 03:57:46;;;;;;;24.00;13.87;;;13.30;84.60;;;;;;5001301;28;20692;-75
2022/04/23 04:00:16;;;;;;;22.23;14.03;;;13.40;84.70;;;;;;5001751;28;20220;-75
2022/04/23 04:02:45;;;;;;;23.20;14.13;;;13.40;84.60;;;;;;5003445;28;20548;-75
2022/04/23 04:05:14;;;;;;;26.30;14.63;;;13.40;84.60;;;;;;5003071;28;20204;-75
2022/04/23 04:07:45;;;;;;;25.03;13.80;;;13.40;84.60;;;;;;5002409;28;20195;-75
2022/04/23 04:10:14;;;;;;;24.17;13.60;;;13.40;84.60;;;;;;5001015;28;20192;-75
2022/04/23 04:12:43;;;;;;;23.80;14.90;;;13.50;84.70;;;;;;5003419;28;20641;-75
2022/04/23 04:15:15;;;;;;;24.30;13.53;;;13.50;85.40;;;;;;5001539;28;20200;-75
2022/04/23 04:17:47;;;;;;;21.23;13.90;;;13.50;84.60;;;;;;5002553;28;20608;-76
2022/04/23 04:20:16;;;;;;;22.97;13.77;;;13.50;84.50;;;;;;5002570;28;20215;-75
2022/04/23 04:22:46;;;;;;;25.13;13.80;;;13.50;84.60;;;;;;5002197;28;20204;-74
2022/04/23 04:25:15;;;;;;;27.07;14.20;;;13.50;84.50;;;;;;5003524;28;20219;-76
2022/04/23 04:27:43;;;;;;;21.93;14.43;;;13.60;84.70;;;;;;5001323;28;20203;-75
2022/04/23 04:30:13;;;;;;;21.90;13.47;;;13.60;84.70;;;;;;5002672;28;20196;-75
2022/04/23 04:32:42;;;;;;;24.50;14.33;;;13.60;84.60;;;;;;5004221;28;20203;-75
2022/04/23 04:35:10;;;;;;;24.57;13.67;;;13.60;84.70;;;;;;5001863;28;20200;-74
2022/04/23 04:37:39;;;;;;;25.40;13.90;;;13.70;84.70;;;;;;5001169;28;20205;-76
2022/04/23 04:40:10;;;;;;;23.67;14.70;;;13.70;84.70;;;;;;5001725;28;20227;-75
2022/04/23 04:42:38;;;;;;;25.47;14.27;;;13.70;84.80;;;;;;5001743;28;20213;-75
2022/04/23 04:45:08;;;;;;;24.30;14.87;;;13.70;84.70;;;;;;5002572;28;20886;-75
2022/04/23 04:47:36;;;;;;;21.30;13.70;;;13.80;84.70;;;;;;5001419;28;20287;-75
2022/04/23 04:50:05;;;;;;;23.30;13.23;;;13.80;84.80;;;;;;5000194;28;20562;-76
2022/04/23 04:52:34;;;;;;;26.27;14.00;;;13.80;84.70;;;;;;5001581;28;20197;-75
2022/04/23 04:55:02;;;;;;;24.40;13.60;;;13.80;84.80;;;;;;5002956;28;20211;-76
2022/04/23 04:57:32;;;;;;;25.20;14.63;;;13.90;84.90;;;;;;5002900;28;20784;-74
2022/04/23 05:00:00;;;;;;;26.30;14.60;;;13.90;84.90;;;;;;5000566;28;20216;-74
2022/04/23 05:02:29;;;;;;;23.67;15.07;;;13.90;85.10;;;;;;5002558;28;20753;-76
2022/04/23 05:04:57;;;;;;;23.53;15.40;;;14.00;85.20;;;;;;5002202;28;20235;-75
2022/04/23 05:07:26;;;;;;;26.83;13.93;;;14.00;85.20;;;;;;5000207;28;20204;-75
2022/04/23 05:09:54;;;;;;;25.73;14.63;;;14.00;85.20;;;;;;5002279;28;20200;-76
2022/04/23 05:12:22;;;;;;;25.67;13.87;;;14.10;85.30;;;;;;5001608;28;20600;-75
2022/04/23 05:14:52;;;;;;;21.90;13.30;;;14.10;85.20;;;;;;5002191;28;20199;-75
2022/04/23 05:17:21;;;;;;;25.63;14.67;;;14.20;85.20;;;;;;5001064;28;20194;-75
2022/04/23 05:19:50;;;;;;;24.70;14.30;;;14.20;85.30;;;;;;5000867;28;20267;-77
2022/04/23 05:22:18;;;;;;;25.77;13.97;;;14.30;85.20;;;;;;5001642;28;20197;-74
2022/04/23 05:24:46;;;;;;;22.13;13.30;;;14.40;85.30;;;;;;5002294;28;20225;-74
2022/04/23 05:27:14;;;;;;;21.30;13.47;;;14.50;85.30;;;;;;5000654;28;20203;-74
2022/04/23 05:29:43;;;;;;;22.87;13.73;;;14.50;85.20;;;;;;5001581;28;20200;-75
2022/04/23 05:32:13;;;;;;;24.30;13.60;;;14.50;85.20;;;;;;5002159;28;20204;-76
2022/04/23 05:34:43;;;;;;;22.03;13.57;;;14.60;85.20;;;;;;5004009;28;20188;-75
2022/04/23 05:37:11;;;;;;;23.10;13.17;;;14.70;85.10;;;;;;5004220;28;21543;-74
2022/04/23 05:39:39;;;;;;;21.70;12.80;;;14.70;84.70;;;;;;5004071;28;20235;-76
2022/04/23 05:42:08;;;;;;;23.83;14.13;;;14.80;84.70;;;;;;5003399;28;20231;-75
2022/04/23 05:44:36;;;;;;;20.93;13.10;;;14.80;84.60;;;;;;5003347;28;20564;-75
2022/04/23 05:47:05;;;;;;;23.07;13.90;;;14.80;84.40;;;;;;5003952;28;20283;-75
2022/04/23 05:49:38;;;;;;;22.43;14.33;;;14.90;84.50;;;;;;4999918;28;20230;-75
2022/04/23 05:52:19;;;;;;;19.97;13.70;;;14.90;84.40;;;;;;5002026;28;20199;-76
2022/04/23 05:54:47;;;;;;;20.63;13.40;;;14.90;84.30;;;;;;5005677;28;20200;-75
2022/04/23 05:57:15;;;;;;;21.93;12.47;;;15.00;84.40;;;;;;5006741;28;20199;-76
2022/04/23 05:59:44;;;;;;;24.07;13.23;;;15.00;84.30;;;;;;5006285;28;20227;-74
2022/04/23 06:02:13;;;;;;;22.73;13.70;;;15.20;84.30;;;;;;5004083;28;20200;-75
2022/04/23 06:04:45;;;;;;;23.97;13.27;;;15.20;84.10;;;;;;5004922;28;20195;-76
2022/04/23 06:07:14;;;;;;;19.80;12.90;;;15.30;84.20;;;;;;5005469;28;20194;-75
2022/04/23 06:09:42;;;;;;;22.43;13.03;;;15.40;84.00;;;;;;5004668;28;20197;-73
2022/04/23 06:12:11;;;;;;;22.53;12.70;;;15.50;83.90;;;;;;5006056;28;21026;-75
2022/04/23 06:14:39;;;;;;;22.43;12.33;;;15.60;84.00;;;;;;5002917;28;20204;-72
2022/04/23 06:17:10;;;;;;;18.20;12.00;;;15.70;83.90;;;;;;5003275;28;20199;-73
2022/04/23 06:19:39;;;;;;;22.83;11.87;;;15.80;83.90;;;;;;4999664;28;20243;-74
2022/04/23 06:22:09;;;;;;;18.57;11.70;;;15.90;83.70;;;;;;5001196;28;20204;-73
2022/04/23 06:24:37;;;;;;;19.63;11.67;;;16.00;83.60;;;;;;5000788;28;20188;-74
2022/04/23 06:27:06;;;;;;;21.20;12.27;;;16.10;83.30;;;;;;5000839;28;20210;-74
2022/04/23 06:29:38;;;;;;;16.87;10.83;;;16.20;83.10;;;;;;5002707;28;20277;-74
2022/04/23 06:32:08;;;;;;;19.73;10.70;;;16.40;83.10;;;;;;5000019;28;20255;-75
2022/04/23 06:34:37;;;;;;;21.00;11.57;;;16.50;82.80;;;;;;5002585;28;21060;-75
2022/04/23 06:37:08;;;;;;;23.67;13.07;;;16.60;82.30;;;;;;4999598;28;21217;-74
2022/04/23 06:39:36;;;;;;;22.03;11.93;;;16.60;81.80;;;;;;5002115;28;20193;-74
2022/04/23 06:42:06;;;;;;;18.70;10.60;;;16.70;81.30;;;;;;5000574;28;20207;-74
2022/04/23 06:44:35;;;;;;;19.60;11.20;;;16.70;81.40;;;;;;5003230;28;20187;-73
2022/04/23 06:47:04;;;;;;;20.30;11.03;;;16.80;81.20;;;;;;5000567;28;20200;-74
2022/04/23 06:49:33;;;;;;;16.53;11.03;;;16.80;80.90;;;;;;5001783;28;20211;-74
2022/04/23 06:52:01;;;;;;;19.03;11.10;;;16.90;80.60;;;;;;4999055;28;20945;-74
2022/04/23 06:54:31;;;;;;;21.23;10.67;;;16.90;80.50;;;;;;5001597;28;20192;-76
2022/04/23 06:56:59;;;;;;;14.87;9.93;;;16.90;80.50;;;;;;5001571;28;20204;-74
2022/04/23 06:59:27;;;;;;;16.87;10.70;;;17.00;80.40;;;;;;5001637;28;20250;-75
2022/04/23 07:02:01;;;;;;;17.63;9.70;;;17.00;80.40;;;;;;5003104;28;20242;-77
2022/04/23 07:04:30;;;;;;;18.67;10.50;;;17.10;80.40;;;;;;5001968;28;20188;-75
2022/04/23 07:06:59;;;;;;;16.23;10.40;;;17.10;80.50;;;;;;5000391;28;20200;-75
2022/04/23 07:09:27;;;;;;;14.77;9.33;;;17.20;80.50;;;;;;4968752;28;20568;-74
2022/04/23 07:11:57;;;;;;;17.60;10.83;;;17.30;80.50;;;;;;5003086;28;20197;-75
2022/04/23 07:14:26;;;;;;;16.50;10.77;;;17.40;80.20;;;;;;5000232;28;20991;-74
2022/04/23 07:16:55;;;;;;;17.27;11.07;;;17.50;80.20;;;;;;4995571;28;20985;-74
2022/04/23 07:19:23;;;;;;;19.30;11.10;;;17.50;80.40;;;;;;4999202;28;20199;-74
2022/04/23 07:21:51;;;;;;;16.77;10.40;;;17.60;80.20;;;;;;5003228;28;20231;-76
2022/04/23 07:24:20;;;;;;;17.50;10.10;;;17.60;79.90;;;;;;5003235;28;20196;-76
2022/04/23 07:26:49;;;;;;;18.53;10.70;;;17.70;80.00;;;;;;5000068;28;20207;-74
2022/04/23 07:29:20;;;;;;;21.47;10.03;;;17.70;80.10;;;;;;5003755;28;20258;-75
2022/04/23 07:31:48;;;;;;;17.90;10.33;;;17.80;80.10;;;;;;5004223;28;20204;-76
2022/04/23 07:39:49;;;;;;;19.53;9.67;;;18.10;80.10;;;;;;5000779;28;20215;-76
2022/04/23 07:42:18;;;;;;;18.10;10.53;;;18.20;80.20;;;;;;5000148;28;20244;-74
2022/04/23 07:44:48;;;;;;;20.93;9.63;;;18.20;80.10;;;;;;5001950;28;20196;-73
2022/04/23 07:47:19;;;;;;;16.33;9.40;;;18.30;80.20;;;;;;5002433;28;20797;-74
2022/04/23 07:49:48;;;;;;;17.20;8.70;;;18.40;80.30;;;;;;5001445;28;20199;-74
2022/04/23 07:52:16;;;;;;;14.27;8.10;;;18.50;79.70;;;;;;5000470;28;20196;-75
2022/04/23 07:54:45;;;;;;;14.17;8.10;;;18.60;79.00;;;;;;4999397;28;20688;-75
2022/04/23 07:57:24;;;;;;;16.60;8.80;;;18.70;77.50;;;;;;5001049;28;20244;-77
2022/04/23 08:00:04;;;;;;;14.90;9.03;;;18.80;77.60;;;;;;4965971;28;20287;-76
2022/04/23 08:02:32;;;;;;;14.47;8.00;;;18.90;77.70;;;;;;5000781;28;20240;-73
2022/04/23 08:05:00;;;;;;;15.93;7.53;;;18.90;77.30;;;;;;5000661;28;20196;-76
2022/04/23 08:07:29;;;;;;;15.40;8.87;;;19.00;76.90;;;;;;4999847;28;20184;-75
2022/04/23 08:09:57;;;;;;;14.10;7.63;;;19.00;76.70;;;;;;5001450;28;20199;-76
2022/04/23 08:12:25;;;;;;;11.10;7.70;;;19.20;76.90;;;;;;4999181;28;20200;-77
2022/04/23 08:14:54;;;;;;;12.60;8.00;;;19.20;76.70;;;;;;4999735;28;20663;-75
2022/04/23 08:17:23;;;;;;;14.30;7.77;;;19.20;76.30;;;;;;5001754;28;20764;-77
2022/04/23 08:19:52;;;;;;;21.33;9.00;;;19.20;76.20;;;;;;4998679;28;20747;-76
2022/04/23 08:22:20;;;;;;;14.73;8.53;;;19.20;76.30;;;;;;5000866;28;20224;-74
2022/04/23 08:24:48;;;;;;;16.67;8.63;;;19.20;76.60;;;;;;5000103;28;20203;-77
2022/04/23 08:27:16;;;;;;;16.13;8.63;;;19.30;77.20;;;;;;4999681;28;20199;-75
2022/04/23 08:32:32;;;;;;;14.13;8.67;;;19.30;77.90;;;;;;5001908;28;20192;-75
2022/04/23 08:35:00;;;;;;;14.43;9.53;;;19.40;77.90;;;;;;5000286;28;20208;-75
2022/04/23 08:37:29;;;;;;;12.50;8.07;;;19.50;79.00;;;;;;4999939;28;20200;-74
2022/04/23 08:39:57;;;;;;;14.73;7.87;;;19.60;77.90;;;;;;4999159;28;20192;-76
2022/04/23 08:42:26;;;;;;;14.13;8.13;;;19.70;77.80;;;;;;4999457;28;20204;-74
2022/04/23 08:44:54;;;;;;;12.83;8.80;;;19.70;77.40;;;;;;4998367;28;20203;-75
2022/04/23 08:47:25;;;;;;;15.10;8.10;;;19.80;78.20;;;;;;4999089;28;20869;-76
2022/04/23 08:49:55;;;;;;;18.00;8.40;;;20.00;78.00;;;;;;5000117;28;20199;-74
2022/04/23 08:52:32;;;;;;;11.40;8.13;;;20.10;77.50;;;;;;4998687;28;20197;-75
2022/04/23 08:55:01;;;;;;;12.73;7.72;;;20.00;76.60;;;;;;5000616;28;20199;-77
2022/04/23 08:57:29;;;;;;;12.82;7.90;;;20.10;76.80;;;;;;4998297;28;20200;-76
2022/04/23 08:59:58;;;;;;;13.17;7.70;;;20.10;76.40;;;;;;4997265;28;20200;-75
2022/04/23 09:02:27;;;;;;;16.80;8.20;;;20.20;76.80;;;;;;4997087;28;20248;-77
2022/04/23 09:04:57;;;;;;;17.13;6.70;;;20.20;76.80;;;;;;5001305;28;20606;-74
2022/04/23 09:07:27;;;;;;;14.70;8.68;;;20.20;76.50;;;;;;5000108;28;20834;-75
2022/04/23 09:09:56;;;;;;;16.25;8.65;;;20.30;76.50;;;;;;4999318;28;20881;-76
2022/04/23 09:12:26;;;;;;;12.95;7.55;;;20.30;76.60;;;;;;5000104;28;20195;-75
2022/04/23 09:15:06;;;;;;;5.05;1.48;;;20.40;76.90;;;;;;4999683;28;20207;-74
2022/04/23 09:25:53;;;;;;;2.38;1.20;;;20.80;66.20;;;;;;4999348;28;20198;-76
2022/04/23 09:28:23;;;;;;;10.15;1.40;;;20.90;64.80;;;;;;5002054;28;20196;-76
2022/04/23 09:30:54;;;;;;;5.40;1.40;;;21.00;63.80;;;;;;5002596;28;20200;-76
2022/04/23 09:33:28;;;;;;;8.18;1.75;;;21.00;61.90;;;;;;5003918;28;20196;-75
2022/04/23 09:35:59;;;;;;;4.60;1.90;;;21.10;63.60;;;;;;5003210;28;20196;-74
2022/04/23 09:38:28;;;;;;;4.80;1.77;;;21.20;64.00;;;;;;5004937;28;21698;-74
2022/04/23 09:40:57;;;;;;;4.75;1.75;;;21.30;64.00;;;;;;5003061;28;20223;-74
2022/04/23 09:43:27;;;;;;;4.25;1.50;;;21.30;63.20;;;;;;5002061;28;20666;-76
2022/04/23 09:46:04;;;;;;;3.42;1.90;;;21.20;62.50;;;;;;5003103;28;20188;-75
2022/04/23 09:48:39;;;;;;;10.13;2.03;;;21.30;63.20;;;;;;5004843;28;20194;-76
2022/04/23 09:51:22;;;;;;;3.55;1.75;;;21.30;63.70;;;;;;5004190;28;20204;-75
2022/04/23 09:53:53;;;;;;;3.65;1.88;;;21.40;63.00;;;;;;5003451;28;20183;-75
2022/04/23 09:56:22;;;;;;;6.78;2.22;;;21.50;63.80;;;;;;5003327;28;20350;-75
2022/04/23 09:58:51;;;;;;;5.88;2.38;;;21.50;64.60;;;;;;5004107;28;20200;-78
2022/04/23 10:01:23;;;;;;;7.18;2.58;;;21.50;64.00;;;;;;5005808;28;20205;-78
2022/04/23 10:03:53;;;;;;;6.97;2.47;;;21.60;63.80;;;;;;5005750;28;20673;-75
2022/04/23 10:06:24;;;;;;;10.95;3.38;;;21.50;63.70;;;;;;5004424;28;21023;-76
2022/04/23 10:08:57;;;;;;;9.07;3.28;;;21.50;64.20;;;;;;5004692;28;20189;-76
2022/04/23 10:11:27;;;;;;;8.48;3.00;;;21.40;65.00;;;;;;5003891;28;20191;-75
2022/04/23 10:13:59;;;;;;;5.18;2.72;;;21.30;65.70;;;;;;5006024;28;20894;-76
2022/04/23 10:16:30;;;;;;;7.32;3.22;;;21.20;65.80;;;;;;5001600;28;20224;-75
2022/04/23 10:19:00;;;;;;;6.15;3.10;;;21.10;66.00;;;;;;5003107;28;20196;-75
2022/04/23 10:21:39;;;;;;;7.72;3.05;;;21.00;66.60;;;;;;5005474;28;20560;-76
2022/04/23 10:24:12;;;;;;;6.18;3.42;;;20.90;67.40;;;;;;5004601;28;20681;-77
2022/04/23 10:26:48;;;;;;;5.75;3.28;;;20.90;68.20;;;;;;5004868;28;20185;-75
2022/04/23 10:29:21;;;;;;;11.13;3.63;;;20.70;68.40;;;;;;5005497;28;20375;-77
2022/04/23 10:32:25;;;;;;;6.65;3.05;;;20.70;68.70;;;;;;5001821;28;20262;-77
2022/04/23 10:34:54;;;;;;;9.55;4.18;;;20.60;70.50;;;;;;4943901;28;20198;-74
2022/04/23 10:37:25;;;;;;;8.32;4.00;;;20.50;70.30;;;;;;4989748;28;20204;-76
2022/04/23 10:40:17;;;;;;;6.10;4.05;;;20.50;71.00;;;;;;5003203;28;20204;-75
2022/04/23 10:43:09;;;;;;;5.90;3.15;;;20.50;71.30;;;;;;5006178;28;20274;-75
2022/04/23 10:45:38;;;;;;;8.48;3.45;;;20.50;71.70;;;;;;4998933;28;20188;-77
2022/04/23 10:48:29;;;;;;;6.35;4.03;;;20.40;71.60;;;;;;5004204;28;20283;-76
2022/04/23 10:51:05;;;;;;;11.50;4.93;;;20.40;71.70;;;;;;5006555;28;20275;-77
2022/04/23 10:53:55;;;;;;;7.43;4.40;;;20.40;72.10;;;;;;5002855;28;20196;-76
2022/04/23 10:56:26;;;;;;;8.57;3.87;;;20.40;72.00;;;;;;5005525;28;20194;-76
2022/04/23 10:58:55;;;;;;;8.23;3.73;;;20.30;73.00;;;;;;5004313;28;20184;-75
2022/04/23 11:01:26;;;;;;;7.27;3.77;;;20.30;73.20;;;;;;5003495;28;20721;-76
2022/04/23 11:04:11;;;;;;;5.63;4.00;;;20.30;73.10;;;;;;5001994;28;20298;-77
2022/04/23 11:12:33;;;;;;;10.10;4.07;;;20.20;73.10;;;;;;5004404;28;20195;-77
2022/04/23 11:15:03;;;;;;;8.73;4.13;;;20.10;73.10;;;;;;5004009;28;20195;-76
2022/04/23 11:17:58;;;;;;;8.70;4.00;;;20.20;73.40;;;;;;5002986;28;20199;-76
2022/04/23 11:20:32;;;;;;;7.03;2.87;;;20.20;73.80;;;;;;5002303;28;20204;-78
2022/04/23 11:23:02;;;;;;;7.17;3.30;;;20.20;74.00;;;;;;5001971;28;20851;-77
2022/04/23 11:25:32;;;;;;;9.03;3.70;;;20.20;73.80;;;;;;5002221;28;20199;-76
2022/04/23 11:28:14;;;;;;;7.27;3.50;;;20.10;73.90;;;;;;5003320;28;20207;-76
2022/04/23 11:30:42;;;;;;;6.87;3.87;;;20.20;74.30;;;;;;5001858;28;21089;-76
2022/04/23 11:33:12;;;;;;;8.10;3.53;;;20.40;74.50;;;;;;5001289;28;20193;-78
2022/04/23 11:35:41;;;;;;;5.18;3.10;;;20.40;74.80;;;;;;5003858;28;20208;-79
2022/04/23 11:38:20;;;;;;;6.93;3.42;;;20.50;74.70;;;;;;5004179;28;20197;-79
2022/04/23 11:40:50;;;;;;;6.13;3.03;;;20.40;74.60;;;;;;5003247;28;20220;-77
2022/04/23 11:43:32;;;;;;;6.25;3.90;;;20.60;74.80;;;;;;5004199;28;20708;-76
2022/04/23 11:46:07;;;;;;;9.05;3.90;;;20.60;75.10;;;;;;5003115;28;20310;-76
2022/04/23 11:48:43;;;;;;;5.07;3.17;;;20.60;75.20;;;;;;5004891;28;20200;-78
2022/04/23 11:51:13;;;;;;;9.13;4.00;;;20.60;75.30;;;;;;5002783;28;20707;-77
2022/04/23 11:53:55;;;;;;;7.00;3.42;;;20.60;75.40;;;;;;5001620;28;20206;-77
2022/04/23 11:56:30;;;;;;;8.75;3.47;;;20.60;75.20;;;;;;5002357;28;20196;-77
2022/04/23 11:59:01;;;;;;;7.53;3.70;;;20.60;75.40;;;;;;5002856;28;20199;-80
2022/04/23 12:01:29;;;;;;;9.70;3.72;;;20.70;75.70;;;;;;5002922;28;20184;-75
2022/04/23 12:03:59;;;;;;;7.03;2.97;;;20.80;75.70;;;;;;5002184;28;20251;-76
2022/04/23 12:06:28;;;;;;;5.47;3.30;;;20.90;75.60;;;;;;5001383;28;20192;-78
2022/04/23 12:09:07;;;;;;;7.95;2.58;;;21.00;75.40;;;;;;5001932;28;20975;-79
2022/04/23 12:11:37;;;;;;;11.43;3.22;;;21.10;75.40;;;;;;5000449;28;20257;-79
2022/04/23 12:14:06;;;;;;;8.65;2.35;;;21.20;75.80;;;;;;5004161;28;20215;-77
2022/04/23 12:16:38;;;;;;;11.82;2.03;;;21.30;73.10;;;;;;4999986;28;20199;-77
2022/04/23 12:19:08;;;;;;;4.88;2.08;;;21.40;71.50;;;;;;5001448;28;20546;-77
2022/04/23 12:21:38;;;;;;;7.07;2.08;;;21.40;71.40;;;;;;5001958;28;20203;-77
2022/04/23 12:24:08;;;;;;;5.60;2.15;;;21.40;70.30;;;;;;5001565;28;20263;-78
2022/04/23 12:26:39;;;;;;;7.10;1.88;;;21.50;71.10;;;;;;5002587;28;20208;-78
2022/04/23 12:43:25;;;;;;;5.85;1.15;;;21.90;66.50;;;;;;5002193;28;20227;-76
2022/04/23 12:46:05;;;;;;;6.63;1.90;;;22.00;66.30;;;;;;5003163;28;20200;-74
2022/04/23 12:48:49;;;;;;;4.03;1.23;;;22.10;65.10;;;;;;5003155;28;20198;-80
2022/04/23 12:51:18;;;;;;;4.85;1.20;;;22.20;66.20;;;;;;5002524;28;20202;-78
2022/04/23 12:53:46;;;;;;;8.48;1.75;;;22.40;64.50;;;;;;5002176;28;20213;-78
2022/04/23 12:56:16;;;;;;;2.75;1.20;;;22.50;64.20;;;;;;5001966;28;20948;-79
2022/04/23 12:58:46;;;;;;;5.28;1.42;;;22.50;63.60;;;;;;5000485;28;20207;-79
2022/04/23 13:01:14;;;;;;;6.85;1.80;;;22.60;64.10;;;;;;5002944;28;20201;-77
2022/04/23 13:03:44;;;;;;;5.07;1.20;;;22.70;64.40;;;;;;4999838;28;20316;-77
2022/04/23 13:08:59;;;;;;;3.00;1.20;;;22.80;63.60;;;;;;5002766;28;20570;-80
2022/04/23 13:11:28;;;;;;;4.05;1.60;;;22.90;63.40;;;;;;5003096;28;20196;-77
2022/04/23 13:13:59;;;;;;;3.58;1.30;;;23.00;62.60;;;;;;5002644;28;20202;-78
2022/04/23 13:16:29;;;;;;;4.55;1.70;;;23.20;63.60;;;;;;5001042;28;20200;-76
2022/04/23 13:18:59;;;;;;;5.32;2.03;;;23.20;61.90;;;;;;5003299;28;20872;-75
2022/04/23 13:21:29;;;;;;;3.38;1.33;;;23.30;61.80;;;;;;5003844;28;20203;-76
2022/04/23 13:23:58;;;;;;;4.65;1.73;;;23.30;61.50;;;;;;5001741;28;20452;-75
2022/04/23 13:26:29;;;;;;;9.82;1.75;;;23.30;61.90;;;;;;5002998;28;20665;-76
2022/04/23 13:28:59;;;;;;;6.30;1.58;;;23.40;60.90;;;;;;4999824;28;20199;-77